createdAt,value
2019-06-10T00:00:37.245Z,4.25
2019-06-10T00:03:11.559Z,4.40
2019-06-10T00:05:44.390Z,6.83
2019-06-10T00:08:17.093Z,17.90
2019-06-10T00:10:51.110Z,30.30
2019-06-10T00:13:25.775Z,3.47
2019-06-10T00:15:59.274Z,6.35
2019-06-10T00:18:41.455Z,3.98
2019-06-10T00:21:08.301Z,3.15
2019-06-10T00:23:41.422Z,5.95
2019-06-10T00:26:14.409Z,3.98
2019-06-10T00:28:47.240Z,5.20
2019-06-10T00:31:21.330Z,7.28
2019-06-10T00:33:54.100Z,6.80
2019-06-10T00:36:26.841Z,6.97
2019-06-10T00:39:03.518Z,7.37
2019-06-10T00:41:36.745Z,4.47
2019-06-10T00:44:12.283Z,5.40
2019-06-10T00:46:43.751Z,5.37
2019-06-10T00:49:16.285Z,5.78
2019-06-10T00:51:50.960Z,7.58
2019-06-10T00:54:23.330Z,6.00
2019-06-10T00:56:56.015Z,2.98
2019-06-10T00:59:31.072Z,2.77
2019-06-10T01:02:03.378Z,6.25
2019-06-10T01:04:37.085Z,5.20
2019-06-10T01:07:11.702Z,4.20
2019-06-10T01:09:44.105Z,4.47
2019-06-10T01:12:16.820Z,9.48
2019-06-10T01:14:51.509Z,6.10
2019-06-10T01:17:23.931Z,4.20
2019-06-10T01:19:56.525Z,9.48
2019-06-10T01:22:31.467Z,7.00
2019-06-10T01:25:03.757Z,12.82
2019-06-10T01:27:36.600Z,4.15
2019-06-10T01:30:17.966Z,7.58
2019-06-10T01:32:44.655Z,7.25
2019-06-10T01:35:17.529Z,10.68
2019-06-10T01:37:51.999Z,5.03
2019-06-10T01:40:24.565Z,7.40
2019-06-10T01:42:57.429Z,4.97
2019-06-10T01:45:31.240Z,9.70
2019-06-10T01:48:04.220Z,7.83
2019-06-10T01:50:36.705Z,5.20
2019-06-10T01:53:11.876Z,3.25
2019-06-10T01:55:43.895Z,6.50
2019-06-10T01:58:20.773Z,6.20
2019-06-10T02:00:54.900Z,4.22
2019-06-10T02:03:28.045Z,6.60
2019-06-10T02:06:01.459Z,14.05
2019-06-10T02:08:34.505Z,4.40
2019-06-10T02:11:07.356Z,4.87
2019-06-10T02:13:40.945Z,4.92
2019-06-10T02:16:15.674Z,8.38
2019-06-10T02:18:59.888Z,4.95
2019-06-10T02:21:24.428Z,7.72
2019-06-10T02:23:56.998Z,4.83
2019-06-10T02:26:30.894Z,9.08
2019-06-10T02:29:03.576Z,10.13
2019-06-10T02:31:38.041Z,4.33
2019-06-10T02:34:13.268Z,7.92
2019-06-10T02:36:45.261Z,7.10
2019-06-10T02:39:25.861Z,14.83
2019-06-10T02:41:54.582Z,7.15
2019-06-10T02:44:33.313Z,2.22
2019-06-10T02:47:03.460Z,6.50
2019-06-10T02:49:55.867Z,4.60
2019-06-10T02:52:28.631Z,4.35
2019-06-10T02:54:54.375Z,5.70
2019-06-10T02:57:32.951Z,6.55
2019-06-10T03:00:06.634Z,3.42
2019-06-10T03:02:37.237Z,8.98
2019-06-10T03:05:14.289Z,14.30
2019-06-10T03:07:45.835Z,5.20
2019-06-10T03:10:21.096Z,9.05
2019-06-10T03:12:53.180Z,8.43
2019-06-10T03:15:26.774Z,6.58
2019-06-10T03:18:02.300Z,10.03
2019-06-10T03:20:34.075Z,4.22
2019-06-10T03:23:07.090Z,13.03
2019-06-10T03:25:42.161Z,10.18
2019-06-10T03:28:15.421Z,5.00
2019-06-10T03:30:53.942Z,5.05
2019-06-10T03:33:27.702Z,6.85
2019-06-10T03:35:57.320Z,3.42
2019-06-10T03:38:32.255Z,8.18
2019-06-10T03:41:04.255Z,7.17
2019-06-10T03:43:36.895Z,8.15
2019-06-10T03:46:09.616Z,7.35
2019-06-10T03:48:43.270Z,5.80
2019-06-10T03:51:17.179Z,6.78
2019-06-10T03:53:50.120Z,7.47
2019-06-10T03:56:25.055Z,8.35
2019-06-10T03:58:57.627Z,2.95
2019-06-10T04:01:33.158Z,8.95
2019-06-10T04:04:05.195Z,6.55
2019-06-10T04:06:37.918Z,8.43
2019-06-10T04:09:12.108Z,12.45
2019-06-10T04:11:45.080Z,14.53
2019-06-10T04:14:18.116Z,8.10
2019-06-10T04:16:52.545Z,14.35
2019-06-10T04:19:26.856Z,8.75
2019-06-10T04:22:02.443Z,7.03
2019-06-10T04:24:34.440Z,6.45
2019-06-10T04:27:07.265Z,6.17
2019-06-10T04:29:42.071Z,22.00
2019-06-10T04:32:14.706Z,5.00
2019-06-10T04:34:47.562Z,8.53
2019-06-10T04:37:22.970Z,7.30
2019-06-10T04:39:57.529Z,5.65
2019-06-10T04:42:29.630Z,6.78
2019-06-10T04:45:03.176Z,10.95
2019-06-10T04:47:36.075Z,8.05
2019-06-10T04:50:24.148Z,5.80
2019-06-10T04:52:44.232Z,9.53
2019-06-10T04:55:17.085Z,10.98
2019-06-10T04:57:52.019Z,6.95
2019-06-10T05:00:27.167Z,24.20
2019-06-10T05:02:59.655Z,6.97
2019-06-10T05:05:33.555Z,8.50
2019-06-10T05:08:06.587Z,6.50
2019-06-10T05:10:39.355Z,18.73
2019-06-10T05:13:12.245Z,12.98
2019-06-10T05:15:45.456Z,8.65
2019-06-10T05:18:19.527Z,31.77
2019-06-10T05:20:58.438Z,19.15
2019-06-10T05:23:27.923Z,13.90
2019-06-10T05:26:02.838Z,16.35
2019-06-10T05:28:35.621Z,18.12
2019-06-10T05:31:08.645Z,15.23
2019-06-10T05:33:42.646Z,17.35
2019-06-10T05:36:15.631Z,26.20
2019-06-10T05:38:48.286Z,15.40
2019-06-10T05:41:24.085Z,14.35
2019-06-10T05:43:55.515Z,5.83
2019-06-10T05:46:28.717Z,12.70
2019-06-10T05:49:03.083Z,7.45
2019-06-10T05:51:35.805Z,16.30
2019-06-10T05:54:08.520Z,8.55
2019-06-10T05:56:43.337Z,10.38
2019-06-10T05:59:15.980Z,4.75
2019-06-10T06:01:49.561Z,8.73
2019-06-10T06:04:23.362Z,9.93
2019-06-10T06:06:57.091Z,4.65
2019-06-10T06:09:32.317Z,8.65
2019-06-10T06:12:04.406Z,8.70
2019-06-10T06:14:38.135Z,7.50
2019-06-10T06:17:12.696Z,6.50
2019-06-10T06:19:45.325Z,9.28
2019-06-10T06:22:21.984Z,7.05
2019-06-10T06:24:53.815Z,12.73
2019-06-10T06:27:26.760Z,7.22
2019-06-10T06:29:59.440Z,9.73
2019-06-10T06:32:33.721Z,11.78
2019-06-10T06:35:07.490Z,8.43
2019-06-10T06:37:42.731Z,8.15
2019-06-10T06:40:15.753Z,11.33
2019-06-10T06:42:48.615Z,13.20
2019-06-10T06:45:22.214Z,9.75
2019-06-10T06:47:55.733Z,10.32
2019-06-10T06:50:28.494Z,11.10
2019-06-10T06:53:20.054Z,21.02
2019-06-10T06:55:37.806Z,16.70
2019-06-10T06:58:12.587Z,11.28
2019-06-10T07:01:00.452Z,17.40
2019-06-10T07:03:20.240Z,15.78
2019-06-10T07:05:54.710Z,13.18
2019-06-10T07:08:30.222Z,9.25
2019-06-10T07:11:04.856Z,8.83
2019-06-10T07:13:39.538Z,14.28
2019-06-10T07:16:13.285Z,8.28
2019-06-10T07:18:50.331Z,14.30
2019-06-10T07:21:22.606Z,10.58
2019-06-10T07:23:54.671Z,10.70
2019-06-10T07:26:27.034Z,14.78
2019-06-10T07:28:59.545Z,12.33
2019-06-10T07:31:34.701Z,9.40
2019-06-10T07:34:06.370Z,8.35
2019-06-10T07:36:38.964Z,10.63
2019-06-10T07:39:13.445Z,13.58
2019-06-10T07:41:47.927Z,10.70
2019-06-10T07:44:22.668Z,13.70
2019-06-10T07:46:55.739Z,10.75
2019-06-10T07:49:32.151Z,15.03
2019-06-10T07:52:15.765Z,12.55
2019-06-10T07:54:39.184Z,12.53
2019-06-10T07:57:12.960Z,11.93
2019-06-10T07:59:46.023Z,9.75
2019-06-10T08:02:19.221Z,9.70
2019-06-10T08:04:54.195Z,12.78
2019-06-10T08:07:26.030Z,13.22
2019-06-10T08:09:58.309Z,13.13
2019-06-10T08:12:32.558Z,10.98
2019-06-10T08:15:06.350Z,13.48
2019-06-10T08:17:40.401Z,11.22
2019-06-10T08:20:13.577Z,11.20
2019-06-10T08:22:54.071Z,7.55
2019-06-10T08:25:22.937Z,12.15
2019-06-10T08:27:55.431Z,11.63
2019-06-10T08:30:28.052Z,15.90
2019-06-10T08:33:03.383Z,15.23
2019-06-10T08:35:43.645Z,15.40
2019-06-10T08:38:09.340Z,13.83
2019-06-10T08:40:44.929Z,10.43
2019-06-10T08:43:16.495Z,10.82
2019-06-10T08:45:49.120Z,13.15
2019-06-10T08:48:22.973Z,14.70
2019-06-10T08:50:56.160Z,12.85
2019-06-10T08:53:28.551Z,13.28
2019-06-10T08:56:02.919Z,15.18
2019-06-10T08:58:34.948Z,18.15
2019-06-10T09:01:08.500Z,12.37
2019-06-10T09:03:44.676Z,9.58
2019-06-10T09:06:14.880Z,14.23
2019-06-10T09:08:50.945Z,11.85
2019-06-10T09:11:23.771Z,12.65
2019-06-10T09:13:56.540Z,12.85
2019-06-10T09:16:29.100Z,12.47
2019-06-10T09:19:02.234Z,14.78
2019-06-10T09:21:35.941Z,12.03
2019-06-10T09:24:08.241Z,10.75
2019-06-10T09:26:44.566Z,16.25
2019-06-10T09:29:14.782Z,10.23
2019-06-10T09:31:51.309Z,14.10
2019-06-10T09:34:23.624Z,16.20
2019-06-10T09:36:56.901Z,17.02
2019-06-10T09:39:29.114Z,11.65
2019-06-10T09:42:06.121Z,11.00
2019-06-10T09:44:35.941Z,12.43
2019-06-10T09:47:08.371Z,10.30
2019-06-10T09:49:45.359Z,10.58
2019-06-10T09:52:16.236Z,10.00
2019-06-10T09:54:55.689Z,12.45
2019-06-10T09:57:23.835Z,16.25
2019-06-10T09:59:56.845Z,15.05
2019-06-10T10:02:29.356Z,15.38
2019-06-10T10:05:02.944Z,14.55
2019-06-10T10:07:38.455Z,15.78
2019-06-10T10:10:12.923Z,14.10
2019-06-10T10:12:47.560Z,11.75
2019-06-10T10:15:27.507Z,13.95
2019-06-10T10:17:56.358Z,16.70
2019-06-10T10:20:28.895Z,17.50
2019-06-10T10:23:02.665Z,19.23
2019-06-10T10:25:35.549Z,12.90
2019-06-10T10:28:07.946Z,12.93
2019-06-10T10:30:42.506Z,11.83
2019-06-10T10:33:14.640Z,12.07
2019-06-10T10:35:48.001Z,13.22
2019-06-10T10:38:22.911Z,15.93
2019-06-10T10:40:58.516Z,15.58
2019-06-10T10:43:34.066Z,17.12
2019-06-10T10:46:05.493Z,10.30
2019-06-10T10:48:38.660Z,13.45
2019-06-10T10:51:13.003Z,14.28
2019-06-10T10:53:50.505Z,11.57
2019-06-10T10:56:22.180Z,14.60
2019-06-10T10:58:57.797Z,18.75
2019-06-10T11:01:28.954Z,20.90
2019-06-10T11:04:03.050Z,9.38
2019-06-10T11:06:36.725Z,16.35
2019-06-10T11:09:12.994Z,14.30
2019-06-10T11:11:46.046Z,11.18
2019-06-10T11:14:22.870Z,11.00
2019-06-10T11:16:57.098Z,16.90
2019-06-10T11:19:28.905Z,13.68
2019-06-10T11:22:02.847Z,17.27
2019-06-10T11:24:40.758Z,28.07
2019-06-10T11:27:12.153Z,14.25
2019-06-10T11:29:44.261Z,12.37
2019-06-10T11:32:16.989Z,11.03
2019-06-10T11:34:49.838Z,10.05
2019-06-10T11:37:23.125Z,27.15
2019-06-10T11:39:56.530Z,17.12
2019-06-10T11:42:33.277Z,16.05
2019-06-10T11:45:07.290Z,16.05
2019-06-10T11:47:42.462Z,16.93
2019-06-10T11:50:15.093Z,13.72
2019-06-10T11:52:47.610Z,13.05
2019-06-10T11:55:21.403Z,8.85
2019-06-10T11:57:57.600Z,14.07
2019-06-10T12:00:33.142Z,24.35
2019-06-10T12:03:05.408Z,11.85
2019-06-10T12:05:38.176Z,9.53
2019-06-10T12:08:13.042Z,12.43
2019-06-10T12:10:44.988Z,15.15
2019-06-10T12:13:17.464Z,14.53
2019-06-10T12:16:48.283Z,21.97
2019-06-10T12:18:24.080Z,15.20
2019-06-10T12:21:02.868Z,26.07
2019-06-10T12:23:33.623Z,13.55
2019-06-10T12:26:05.893Z,12.35
2019-06-10T12:28:38.572Z,29.72
2019-06-10T12:31:13.380Z,15.78
2019-06-10T12:33:45.526Z,11.08
2019-06-10T12:36:18.897Z,14.53
2019-06-10T12:38:55.357Z,13.68
2019-06-10T12:41:26.140Z,11.80
2019-06-10T12:43:58.695Z,14.58
2019-06-10T12:46:32.783Z,13.25
2019-06-10T12:49:08.456Z,13.25
2019-06-10T12:51:40.005Z,15.35
2019-06-10T12:54:13.181Z,21.87
2019-06-10T12:56:46.230Z,16.17
2019-06-10T12:59:18.802Z,15.65
2019-06-10T13:01:53.162Z,9.35
2019-06-10T13:04:27.050Z,9.78
2019-06-10T13:07:05.173Z,14.43
2019-06-10T13:09:38.346Z,21.93
2019-06-10T13:12:12.956Z,12.65
2019-06-10T13:14:45.111Z,18.62
2019-06-10T13:17:18.010Z,19.77
2019-06-10T13:19:50.815Z,15.85
2019-06-10T13:22:23.570Z,11.10
2019-06-10T13:24:56.475Z,9.23
2019-06-10T13:27:29.454Z,12.20
2019-06-10T13:30:02.711Z,31.45
2019-06-10T13:32:35.895Z,15.50
2019-06-10T13:35:08.338Z,12.07
2019-06-10T13:37:42.846Z,12.70
2019-06-10T13:40:16.210Z,11.08
2019-06-10T13:42:48.900Z,11.22
2019-06-10T13:45:22.430Z,14.13
2019-06-10T13:47:56.155Z,13.25
2019-06-10T13:50:29.094Z,13.03
2019-06-10T13:53:03.772Z,8.90
2019-06-10T13:55:36.140Z,11.80
2019-06-10T13:58:11.465Z,21.73
2019-06-10T14:00:46.730Z,15.98
2019-06-10T14:03:18.775Z,10.85
2019-06-10T14:05:57.889Z,12.00
2019-06-10T14:08:26.766Z,19.60
2019-06-10T14:11:03.349Z,9.88
2019-06-10T14:13:33.880Z,11.12
2019-06-10T14:16:07.721Z,9.35
2019-06-10T14:18:42.390Z,23.02
2019-06-10T14:21:18.455Z,9.75
2019-06-10T14:23:49.461Z,12.70
2019-06-10T14:26:37.172Z,14.50
2019-06-10T14:28:56.576Z,11.03
2019-06-10T14:31:42.835Z,18.45
2019-06-10T14:34:05.714Z,14.85
2019-06-10T14:36:38.065Z,12.30
2019-06-10T14:39:13.162Z,10.03
2019-06-10T14:41:45.275Z,21.17
2019-06-10T14:44:18.144Z,17.67
2019-06-10T14:46:52.968Z,19.95
2019-06-10T14:49:24.825Z,12.10
2019-06-10T14:51:57.362Z,19.05
2019-06-10T14:54:32.223Z,12.47
2019-06-10T14:57:05.226Z,14.25
2019-06-10T14:59:37.913Z,22.00
2019-06-10T15:02:12.888Z,13.88
2019-06-10T15:04:44.939Z,13.32
2019-06-10T15:07:17.925Z,11.28
2019-06-10T15:09:52.603Z,12.07
2019-06-10T15:12:25.025Z,17.30
2019-06-10T15:14:57.715Z,17.17
2019-06-10T15:17:32.546Z,10.88
2019-06-10T15:20:07.426Z,17.10
2019-06-10T15:22:43.005Z,16.27
2019-06-10T15:25:17.067Z,11.93
2019-06-10T15:27:52.047Z,14.43
2019-06-10T15:30:28.091Z,11.03
2019-06-10T15:32:58.845Z,12.63
2019-06-10T15:35:32.789Z,9.23
2019-06-10T15:38:05.386Z,18.75
2019-06-10T15:40:38.000Z,14.07
2019-06-10T15:43:11.694Z,12.15
2019-06-10T15:45:44.635Z,10.10
2019-06-10T15:48:18.822Z,14.70
2019-06-10T15:50:51.770Z,18.00
2019-06-10T15:53:25.783Z,12.60
2019-06-10T15:56:16.888Z,13.05
2019-06-10T15:58:34.265Z,12.33
2019-06-10T16:01:07.010Z,10.38
2019-06-10T16:03:42.230Z,16.82
2019-06-10T16:06:14.385Z,14.60
2019-06-10T16:08:48.485Z,13.62
2019-06-10T16:11:25.467Z,24.75
2019-06-10T16:13:56.765Z,15.13
2019-06-10T16:16:29.518Z,11.03
2019-06-10T16:19:02.292Z,19.35
2019-06-10T16:21:35.460Z,10.80
2019-06-10T16:24:07.952Z,16.17
2019-06-10T16:26:40.645Z,13.40
2019-06-10T16:29:13.336Z,16.95
2019-06-10T16:31:45.960Z,14.65
2019-06-10T16:34:19.694Z,14.35
2019-06-10T16:36:53.314Z,13.55
2019-06-10T16:39:26.899Z,16.40
2019-06-10T16:42:00.174Z,27.27
2019-06-10T16:44:33.097Z,12.20
2019-06-10T16:47:05.640Z,16.82
2019-06-10T16:49:38.229Z,18.50
2019-06-10T16:52:12.150Z,17.87
2019-06-10T16:54:44.904Z,17.85
2019-06-10T16:57:17.730Z,9.78
2019-06-10T16:59:52.060Z,10.45
2019-06-10T17:02:25.451Z,13.68
2019-06-10T17:04:59.220Z,18.02
2019-06-10T17:07:32.965Z,13.32
2019-06-10T17:10:07.755Z,15.72
2019-06-10T17:12:42.519Z,15.50
2019-06-10T17:15:14.990Z,15.95
2019-06-10T17:17:47.774Z,11.88
2019-06-10T17:20:21.184Z,12.33
2019-06-10T17:22:55.189Z,20.12
2019-06-10T17:25:28.137Z,13.75
2019-06-10T17:28:15.110Z,13.28
2019-06-10T17:30:35.374Z,11.90
2019-06-10T17:33:08.270Z,29.27
2019-06-10T17:35:43.130Z,18.00
2019-06-10T17:38:15.558Z,17.10
2019-06-10T17:40:48.584Z,20.80
2019-06-10T17:43:23.161Z,15.88
2019-06-10T17:45:56.209Z,19.60
2019-06-10T17:48:29.264Z,11.10
2019-06-10T17:51:02.468Z,15.72
2019-06-10T17:53:35.351Z,18.40
2019-06-10T17:56:07.941Z,12.95
2019-06-10T17:58:53.441Z,18.15
2019-06-10T18:01:14.650Z,14.45
2019-06-10T18:03:47.265Z,19.55
2019-06-10T18:06:22.461Z,19.95
2019-06-10T18:08:54.496Z,20.43
2019-06-10T18:11:28.053Z,18.10
2019-06-10T18:14:02.678Z,14.60
2019-06-10T18:16:36.703Z,18.42
2019-06-10T18:19:09.406Z,25.68
2019-06-10T18:21:42.070Z,18.35
2019-06-10T18:24:15.676Z,16.23
2019-06-10T18:26:48.302Z,15.00
2019-06-10T18:29:23.057Z,16.50
2019-06-10T18:31:55.276Z,18.17
2019-06-10T18:34:27.794Z,24.65
2019-06-10T18:37:02.684Z,20.30
2019-06-10T18:39:35.631Z,32.33
2019-06-10T18:42:08.206Z,20.37
2019-06-10T18:44:40.871Z,16.23
2019-06-10T18:47:13.505Z,23.10
2019-06-10T18:49:46.216Z,26.37
2019-06-10T18:52:18.651Z,15.78
2019-06-10T18:54:52.886Z,24.32
2019-06-10T18:57:25.635Z,14.93
2019-06-10T18:59:58.175Z,26.10
2019-06-10T19:02:32.326Z,15.85
2019-06-10T19:05:08.031Z,15.43
2019-06-10T19:07:42.882Z,21.15
2019-06-10T19:10:18.420Z,19.40
2019-06-10T19:12:53.103Z,25.20
2019-06-10T19:15:25.594Z,17.07
2019-06-10T19:17:58.447Z,25.75
2019-06-10T19:20:36.365Z,26.37
2019-06-10T19:23:07.150Z,22.60
2019-06-10T19:25:41.892Z,27.30
2019-06-10T19:28:14.331Z,19.00
2019-06-10T19:30:47.021Z,21.25
2019-06-10T19:33:19.931Z,18.40
2019-06-10T19:35:53.307Z,25.57
2019-06-10T19:38:26.272Z,27.48
2019-06-10T19:40:59.096Z,25.37
2019-06-10T19:43:34.621Z,24.27
2019-06-10T19:46:07.723Z,27.13
2019-06-10T19:48:44.573Z,25.37
2019-06-10T19:51:15.426Z,24.12
2019-06-10T19:53:47.980Z,18.07
2019-06-10T19:56:24.184Z,31.10
2019-06-10T19:58:55.459Z,22.65
2019-06-10T20:01:28.298Z,31.48
2019-06-10T20:04:02.629Z,26.45
2019-06-10T20:06:35.790Z,21.15
2019-06-10T20:09:13.044Z,18.65
2019-06-10T20:11:47.265Z,18.23
2019-06-10T20:14:19.815Z,22.73
2019-06-10T20:16:52.877Z,16.70
2019-06-10T20:19:25.625Z,17.02
2019-06-10T20:21:58.109Z,27.48
2019-06-10T20:24:30.485Z,14.58
2019-06-10T20:27:03.396Z,15.93
2019-06-10T20:29:36.015Z,14.87
2019-06-10T20:32:08.871Z,15.70
2019-06-10T20:34:41.515Z,20.10
2019-06-10T20:37:14.244Z,16.32
2019-06-10T20:39:47.795Z,22.02
2019-06-10T20:42:22.965Z,18.98
2019-06-10T20:44:55.228Z,17.52
2019-06-10T20:47:29.195Z,23.25
2019-06-10T20:50:03.067Z,22.05
2019-06-10T20:52:36.265Z,28.15
2019-06-10T20:55:12.719Z,20.57
2019-06-10T20:57:56.257Z,32.20
2019-06-10T21:00:33.629Z,27.07
2019-06-10T21:03:07.575Z,33.58
2019-06-10T21:05:41.610Z,27.87
2019-06-10T21:08:14.285Z,40.00
2019-06-10T21:10:49.449Z,38.13
2019-06-10T21:13:22.651Z,29.15
2019-06-10T21:15:59.115Z,35.05
2019-06-10T21:18:29.886Z,38.63
2019-06-10T21:21:02.886Z,34.38
2019-06-10T21:23:35.530Z,37.38
2019-06-10T21:26:08.400Z,39.53
2019-06-10T21:28:43.646Z,32.05
2019-06-10T21:31:15.875Z,30.35
2019-06-10T21:33:49.534Z,36.15
2019-06-10T21:36:23.160Z,34.00
2019-06-10T21:38:56.127Z,36.05
2019-06-10T21:41:28.805Z,39.18
2019-06-10T21:44:03.190Z,33.33
2019-06-10T21:46:36.009Z,31.25
2019-06-10T21:49:09.595Z,27.35
2019-06-10T21:51:45.311Z,30.17
2019-06-10T21:54:17.851Z,28.60
2019-06-10T21:56:54.014Z,39.13
2019-06-10T21:59:24.835Z,25.45
2019-06-10T22:01:57.776Z,30.82
2019-06-10T22:04:32.517Z,26.07
2019-06-10T22:07:04.930Z,26.07
2019-06-10T22:09:37.662Z,21.37
2019-06-10T22:12:11.979Z,24.60
2019-06-10T22:14:46.077Z,34.70
2019-06-10T22:17:18.876Z,33.70
2019-06-10T22:19:53.603Z,28.27
2019-06-10T22:22:26.176Z,34.00
2019-06-10T22:24:58.692Z,30.85
2019-06-10T22:27:32.681Z,29.27
2019-06-10T22:30:11.399Z,32.35
2019-06-10T22:32:42.949Z,28.95
2019-06-10T22:35:15.780Z,27.45
2019-06-10T22:37:49.646Z,32.95
2019-06-10T22:40:22.551Z,25.90
2019-06-10T22:42:56.792Z,30.62
2019-06-10T22:45:29.451Z,27.07
2019-06-10T22:48:03.071Z,29.37
2019-06-10T22:50:36.027Z,32.25
2019-06-10T22:53:09.006Z,32.73
2019-06-10T22:55:43.279Z,25.85
2019-06-10T22:58:16.067Z,27.32
2019-06-10T23:00:49.987Z,31.82
2019-06-10T23:03:23.626Z,29.25
2019-06-10T23:05:58.520Z,24.35
2019-06-10T23:08:33.408Z,32.05
2019-06-10T23:11:06.262Z,22.27
2019-06-10T23:13:38.907Z,23.20
2019-06-10T23:16:13.010Z,26.85
2019-06-10T23:18:45.846Z,31.40
2019-06-10T23:21:18.486Z,27.73
2019-06-10T23:23:53.810Z,25.05
2019-06-10T23:26:25.667Z,23.05
2019-06-10T23:28:58.836Z,24.20
2019-06-10T23:31:33.679Z,24.05
2019-06-10T23:34:06.602Z,27.25
2019-06-10T23:36:39.210Z,25.43
2019-06-10T23:39:13.199Z,25.92
2019-06-10T23:41:45.950Z,32.08
2019-06-10T23:44:18.825Z,23.15
2019-06-10T23:46:51.658Z,25.52
2019-06-10T23:49:24.277Z,28.17
2019-06-10T23:51:57.593Z,22.62
2019-06-10T23:54:32.272Z,28.10
2019-06-10T23:57:06.150Z,30.02
2019-06-10T23:59:42.624Z,30.77
